sensor_id;sensor_type;location;lat;lon;timestamp;pressure;altitude;pressure_sealevel;temperature;humidity
70250;BME280;57644;48.416;-123.374;2023-01-26T00:00:36;103930.99;;;1.94;100.00
70250;BME280;57644;48.416;-123.374;2023-01-26T00:03:07;103934.04;;;1.90;100.00
70250;BME280;57644;48.416;-123.374;2023-01-26T00:05:39;103940.57;;;1.83;100.00
70250;BME280;57644;48.416;-123.374;2023-01-26T00:08:08;103938.46;;;1.71;100.00
70250;BME280;57644;48.416;-123.374;2023-01-26T00:10:40;103940.16;;;1.73;100.00
70250;BME280;57644;48.416;-123.374;2023-01-26T00:13:10;103939.21;;;1.86;100.00
70250;BME280;57644;48.416;-123.374;2023-01-26T00:15:40;103938.64;;;1.86;100.00
70250;BME280;57644;48.416;-123.374;2023-01-26T00:18:09;103935.37;;;1.90;100.00
70250;BME280;57644;48.416;-123.374;2023-01-26T00:20:40;103939.37;;;1.86;100.00
70250;BME280;57644;48.416;-123.374;2023-01-26T00:23:11;103943.95;;;1.91;100.00
70250;BME280;57644;48.416;-123.374;2023-01-26T00:25:41;103945.86;;;1.88;100.00
70250;BME280;57644;48.416;-123.374;2023-01-26T00:28:12;103947.33;;;1.77;100.00
70250;BME280;57644;48.416;-123.374;2023-01-26T00:30:42;103951.75;;;1.78;100.00
70250;BME280;57644;48.416;-123.374;2023-01-26T00:33:12;103951.88;;;1.76;100.00
70250;BME280;57644;48.416;-123.374;2023-01-26T00:36:00;103952.28;;;1.68;100.00
70250;BME280;57644;48.416;-123.374;2023-01-26T00:38:14;103953.13;;;1.68;100.00
70250;BME280;57644;48.416;-123.374;2023-01-26T00:40:45;103955.92;;;1.72;100.00
70250;BME280;57644;48.416;-123.374;2023-01-26T00:43:15;103957.69;;;1.68;100.00
70250;BME280;57644;48.416;-123.374;2023-01-26T00:45:46;103961.02;;;1.68;100.00
70250;BME280;57644;48.416;-123.374;2023-01-26T00:48:16;103962.51;;;1.68;100.00
70250;BME280;57644;48.416;-123.374;2023-01-26T00:50:47;103966.58;;;1.73;100.00
70250;BME280;57644;48.416;-123.374;2023-01-26T00:53:22;103968.07;;;1.62;100.00
70250;BME280;57644;48.416;-123.374;2023-01-26T00:55:48;103970.54;;;1.56;100.00
70250;BME280;57644;48.416;-123.374;2023-01-26T00:58:17;103974.08;;;1.53;100.00
70250;BME280;57644;48.416;-123.374;2023-01-26T01:00:48;103975.61;;;1.56;100.00
70250;BME280;57644;48.416;-123.374;2023-01-26T01:03:18;103972.77;;;1.44;100.00
70250;BME280;57644;48.416;-123.374;2023-01-26T01:05:50;103972.50;;;1.30;100.00
70250;BME280;57644;48.416;-123.374;2023-01-26T01:08:19;103969.56;;;1.45;100.00
70250;BME280;57644;48.416;-123.374;2023-01-26T01:10:50;103973.24;;;1.41;100.00
70250;BME280;57644;48.416;-123.374;2023-01-26T01:13:19;103968.03;;;1.57;100.00
70250;BME280;57644;48.416;-123.374;2023-01-26T01:15:50;103969.95;;;1.56;100.00
70250;BME280;57644;48.416;-123.374;2023-01-26T01:18:22;103966.98;;;1.44;100.00
70250;BME280;57644;48.416;-123.374;2023-01-26T01:20:51;103969.21;;;1.40;100.00
70250;BME280;57644;48.416;-123.374;2023-01-26T01:23:22;103972.73;;;1.36;100.00
70250;BME280;57644;48.416;-123.374;2023-01-26T01:25:57;103969.92;;;1.26;100.00
70250;BME280;57644;48.416;-123.374;2023-01-26T01:28:22;103970.65;;;1.21;100.00
70250;BME280;57644;48.416;-123.374;2023-01-26T01:30:53;103972.31;;;1.24;100.00
70250;BME280;57644;48.416;-123.374;2023-01-26T01:33:30;103969.29;;;1.08;100.00
70250;BME280;57644;48.416;-123.374;2023-01-26T01:35:56;103972.56;;;1.07;100.00
70250;BME280;57644;48.416;-123.374;2023-01-26T01:38:24;103976.60;;;1.15;100.00
70250;BME280;57644;48.416;-123.374;2023-01-26T01:40:56;103975.30;;;1.26;100.00
70250;BME280;57644;48.416;-123.374;2023-01-26T01:43:26;103971.62;;;1.16;100.00
70250;BME280;57644;48.416;-123.374;2023-01-26T01:45:58;103970.24;;;1.07;100.00
70250;BME280;57644;48.416;-123.374;2023-01-26T01:48:28;103977.33;;;1.10;100.00
70250;BME280;57644;48.416;-123.374;2023-01-26T01:51:02;103986.21;;;1.06;100.00
70250;BME280;57644;48.416;-123.374;2023-01-26T01:53:31;103989.83;;;1.13;100.00
70250;BME280;57644;48.416;-123.374;2023-01-26T01:56:00;103989.40;;;1.18;100.00
70250;BME280;57644;48.416;-123.374;2023-01-26T01:58:29;103989.97;;;1.15;100.00
70250;BME280;57644;48.416;-123.374;2023-01-26T02:03:28;103990.92;;;0.95;100.00
70250;BME280;57644;48.416;-123.374;2023-01-26T02:06:02;103987.51;;;1.08;100.00
70250;BME280;57644;48.416;-123.374;2023-01-26T02:08:33;103993.23;;;1.14;100.00
70250;BME280;57644;48.416;-123.374;2023-01-26T02:11:04;103995.35;;;1.07;100.00
70250;BME280;57644;48.416;-123.374;2023-01-26T02:13:31;104000.31;;;0.94;100.00
70250;BME280;57644;48.416;-123.374;2023-01-26T02:16:00;104001.92;;;1.02;100.00
70250;BME280;57644;48.416;-123.374;2023-01-26T02:18:31;103999.70;;;1.00;100.00
70250;BME280;57644;48.416;-123.374;2023-01-26T02:21:03;103992.38;;;0.87;100.00
70250;BME280;57644;48.416;-123.374;2023-01-26T02:23:40;103986.36;;;0.89;100.00
70250;BME280;57644;48.416;-123.374;2023-01-26T02:26:07;103981.87;;;0.95;100.00
70250;BME280;57644;48.416;-123.374;2023-01-26T02:28:32;103981.68;;;1.01;100.00
70250;BME280;57644;48.416;-123.374;2023-01-26T02:31:03;103984.02;;;1.02;100.00
70250;BME280;57644;48.416;-123.374;2023-01-26T02:33:34;103989.48;;;1.01;100.00
70250;BME280;57644;48.416;-123.374;2023-01-26T02:36:05;103987.79;;;1.00;100.00
70250;BME280;57644;48.416;-123.374;2023-01-26T02:38:39;103989.07;;;0.97;100.00
70250;BME280;57644;48.416;-123.374;2023-01-26T02:41:07;103988.32;;;0.95;100.00
70250;BME280;57644;48.416;-123.374;2023-01-26T02:43:35;103993.04;;;0.98;100.00
70250;BME280;57644;48.416;-123.374;2023-01-26T02:46:06;103994.05;;;0.94;100.00
70250;BME280;57644;48.416;-123.374;2023-01-26T02:48:36;103995.84;;;1.04;100.00
70250;BME280;57644;48.416;-123.374;2023-01-26T02:51:07;104003.66;;;1.01;100.00
70250;BME280;57644;48.416;-123.374;2023-01-26T02:53:37;104008.96;;;0.94;100.00
70250;BME280;57644;48.416;-123.374;2023-01-26T02:56:09;104010.88;;;0.95;100.00
70250;BME280;57644;48.416;-123.374;2023-01-26T02:58:38;104007.77;;;1.03;100.00
70250;BME280;57644;48.416;-123.374;2023-01-26T03:01:09;104011.03;;;1.09;100.00
70250;BME280;57644;48.416;-123.374;2023-01-26T03:03:39;104010.86;;;1.13;100.00
70250;BME280;57644;48.416;-123.374;2023-01-26T03:06:12;104011.39;;;1.13;100.00
70250;BME280;57644;48.416;-123.374;2023-01-26T03:08:41;104016.11;;;1.15;100.00
70250;BME280;57644;48.416;-123.374;2023-01-26T03:11:11;104016.68;;;1.16;100.00
70250;BME280;57644;48.416;-123.374;2023-01-26T03:13:41;104016.61;;;0.89;100.00
70250;BME280;57644;48.416;-123.374;2023-01-26T03:16:12;104013.37;;;0.89;100.00
70250;BME280;57644;48.416;-123.374;2023-01-26T03:18:42;104011.69;;;0.84;100.00
70250;BME280;57644;48.416;-123.374;2023-01-26T03:21:14;104011.77;;;0.89;100.00
70250;BME280;57644;48.416;-123.374;2023-01-26T03:23:43;104012.71;;;0.77;100.00
70250;BME280;57644;48.416;-123.374;2023-01-26T03:26:14;104015.87;;;0.84;100.00
70250;BME280;57644;48.416;-123.374;2023-01-26T03:28:44;104015.74;;;0.73;100.00
70250;BME280;57644;48.416;-123.374;2023-01-26T03:31:15;104015.28;;;0.66;100.00
70250;BME280;57644;48.416;-123.374;2023-01-26T03:33:45;104015.07;;;0.64;100.00
70250;BME280;57644;48.416;-123.374;2023-01-26T03:36:26;104008.94;;;0.67;100.00
70250;BME280;57644;48.416;-123.374;2023-01-26T03:38:46;104007.07;;;0.70;100.00
70250;BME280;57644;48.416;-123.374;2023-01-26T03:41:17;104009.64;;;0.71;100.00
70250;BME280;57644;48.416;-123.374;2023-01-26T03:43:47;104010.79;;;0.72;100.00
70250;BME280;57644;48.416;-123.374;2023-01-26T03:46:17;104006.67;;;0.61;100.00
70250;BME280;57644;48.416;-123.374;2023-01-26T03:48:47;104005.43;;;0.40;100.00
70250;BME280;57644;48.416;-123.374;2023-01-26T03:51:20;104004.38;;;0.51;100.00
70250;BME280;57644;48.416;-123.374;2023-01-26T03:53:48;103998.98;;;0.62;100.00
70250;BME280;57644;48.416;-123.374;2023-01-26T03:56:18;103993.74;;;0.49;100.00
70250;BME280;57644;48.416;-123.374;2023-01-26T03:58:50;103988.86;;;0.42;100.00
70250;BME280;57644;48.416;-123.374;2023-01-26T04:01:19;103990.20;;;0.49;100.00
70250;BME280;57644;48.416;-123.374;2023-01-26T04:03:50;103993.58;;;0.54;100.00
70250;BME280;57644;48.416;-123.374;2023-01-26T04:06:19;103994.82;;;0.56;100.00
70250;BME280;57644;48.416;-123.374;2023-01-26T04:08:49;104000.51;;;0.55;100.00
70250;BME280;57644;48.416;-123.374;2023-01-26T04:11:19;103999.67;;;0.54;100.00
70250;BME280;57644;48.416;-123.374;2023-01-26T04:13:49;103995.93;;;0.63;100.00
70250;BME280;57644;48.416;-123.374;2023-01-26T04:16:20;103993.57;;;0.58;100.00
70250;BME280;57644;48.416;-123.374;2023-01-26T04:18:51;103985.58;;;0.72;100.00
70250;BME280;57644;48.416;-123.374;2023-01-26T04:21:21;103981.94;;;0.74;100.00
70250;BME280;57644;48.416;-123.374;2023-01-26T04:23:53;103986.62;;;0.71;100.00
70250;BME280;57644;48.416;-123.374;2023-01-26T04:26:22;103990.63;;;0.72;100.00
70250;BME280;57644;48.416;-123.374;2023-01-26T04:28:52;103992.41;;;0.76;100.00
70250;BME280;57644;48.416;-123.374;2023-01-26T04:31:24;103988.60;;;0.69;100.00
70250;BME280;57644;48.416;-123.374;2023-01-26T04:33:53;103983.28;;;0.59;100.00
70250;BME280;57644;48.416;-123.374;2023-01-26T04:36:23;103978.31;;;0.49;100.00
70250;BME280;57644;48.416;-123.374;2023-01-26T04:38:54;103983.07;;;0.17;100.00
70250;BME280;57644;48.416;-123.374;2023-01-26T04:41:24;103984.78;;;0.35;100.00
70250;BME280;57644;48.416;-123.374;2023-01-26T04:43:54;103981.47;;;0.37;100.00
70250;BME280;57644;48.416;-123.374;2023-01-26T04:46:25;103984.65;;;0.31;100.00
70250;BME280;57644;48.416;-123.374;2023-01-26T04:48:56;103984.48;;;0.40;100.00
70250;BME280;57644;48.416;-123.374;2023-01-26T04:51:28;103984.35;;;0.49;100.00
70250;BME280;57644;48.416;-123.374;2023-01-26T04:53:57;103978.19;;;0.33;100.00
70250;BME280;57644;48.416;-123.374;2023-01-26T04:56:30;103978.20;;;0.35;100.00
70250;BME280;57644;48.416;-123.374;2023-01-26T04:58:59;103979.59;;;0.41;100.00
70250;BME280;57644;48.416;-123.374;2023-01-26T05:01:28;103985.34;;;0.37;100.00
70250;BME280;57644;48.416;-123.374;2023-01-26T05:03:59;103979.96;;;0.32;100.00
70250;BME280;57644;48.416;-123.374;2023-01-26T05:06:30;103975.54;;;0.39;100.00
70250;BME280;57644;48.416;-123.374;2023-01-26T05:08:59;103972.68;;;0.44;100.00
70250;BME280;57644;48.416;-123.374;2023-01-26T05:11:30;103976.11;;;0.47;100.00
70250;BME280;57644;48.416;-123.374;2023-01-26T05:14:00;103972.92;;;0.53;100.00
70250;BME280;57644;48.416;-123.374;2023-01-26T05:16:31;103971.61;;;0.64;100.00
70250;BME280;57644;48.416;-123.374;2023-01-26T05:19:01;103969.37;;;0.46;100.00
70250;BME280;57644;48.416;-123.374;2023-01-26T05:21:32;103970.79;;;0.26;100.00
70250;BME280;57644;48.416;-123.374;2023-01-26T05:24:02;103971.95;;;0.34;100.00
70250;BME280;57644;48.416;-123.374;2023-01-26T05:26:35;103963.94;;;0.23;100.00
70250;BME280;57644;48.416;-123.374;2023-01-26T05:29:04;103958.95;;;0.36;100.00
70250;BME280;57644;48.416;-123.374;2023-01-26T05:31:44;103953.20;;;0.52;100.00
70250;BME280;57644;48.416;-123.374;2023-01-26T05:34:04;103954.09;;;0.55;100.00
70250;BME280;57644;48.416;-123.374;2023-01-26T05:36:34;103951.35;;;0.66;100.00
70250;BME280;57644;48.416;-123.374;2023-01-26T05:39:06;103946.46;;;0.73;100.00
70250;BME280;57644;48.416;-123.374;2023-01-26T05:41:36;103945.27;;;0.68;100.00
70250;BME280;57644;48.416;-123.374;2023-01-26T05:44:06;103942.53;;;0.65;100.00
70250;BME280;57644;48.416;-123.374;2023-01-26T05:46:36;103945.98;;;0.73;100.00
70250;BME280;57644;48.416;-123.374;2023-01-26T05:49:06;103943.50;;;0.59;100.00
70250;BME280;57644;48.416;-123.374;2023-01-26T05:51:37;103944.71;;;0.51;100.00
70250;BME280;57644;48.416;-123.374;2023-01-26T05:54:07;103944.87;;;0.28;100.00
70250;BME280;57644;48.416;-123.374;2023-01-26T05:56:38;103947.75;;;0.32;100.00
70250;BME280;57644;48.416;-123.374;2023-01-26T05:59:08;103943.73;;;-0.11;100.00
70250;BME280;57644;48.416;-123.374;2023-01-26T06:01:39;103936.66;;;0.14;100.00
70250;BME280;57644;48.416;-123.374;2023-01-26T06:04:09;103937.68;;;0.15;100.00
70250;BME280;57644;48.416;-123.374;2023-01-26T06:06:41;103934.51;;;0.33;100.00
70250;BME280;57644;48.416;-123.374;2023-01-26T06:09:11;103937.10;;;0.21;100.00
70250;BME280;57644;48.416;-123.374;2023-01-26T06:11:42;103934.51;;;0.28;100.00
70250;BME280;57644;48.416;-123.374;2023-01-26T06:14:12;103939.52;;;0.44;100.00
70250;BME280;57644;48.416;-123.374;2023-01-26T06:16:43;103943.01;;;0.54;100.00
70250;BME280;57644;48.416;-123.374;2023-01-26T06:19:13;103939.30;;;0.65;100.00
70250;BME280;57644;48.416;-123.374;2023-01-26T06:21:43;103938.05;;;0.69;100.00
70250;BME280;57644;48.416;-123.374;2023-01-26T06:24:13;103939.00;;;0.61;100.00
70250;BME280;57644;48.416;-123.374;2023-01-26T06:26:45;103943.64;;;0.66;100.00
70250;BME280;57644;48.416;-123.374;2023-01-26T06:29:14;103940.39;;;0.25;100.00
70250;BME280;57644;48.416;-123.374;2023-01-26T06:31:45;103935.71;;;0.06;100.00
70250;BME280;57644;48.416;-123.374;2023-01-26T06:34:28;103937.37;;;-0.08;100.00
70250;BME280;57644;48.416;-123.374;2023-01-26T06:36:46;103942.77;;;0.01;100.00
70250;BME280;57644;48.416;-123.374;2023-01-26T06:39:17;103943.34;;;0.14;100.00
70250;BME280;57644;48.416;-123.374;2023-01-26T06:41:46;103944.55;;;0.19;100.00
70250;BME280;57644;48.416;-123.374;2023-01-26T06:44:16;103949.69;;;0.27;100.00
70250;BME280;57644;48.416;-123.374;2023-01-26T06:46:47;103954.84;;;0.34;100.00
70250;BME280;57644;48.416;-123.374;2023-01-26T06:49:28;103954.06;;;0.47;100.00
70250;BME280;57644;48.416;-123.374;2023-01-26T06:51:54;103948.24;;;0.41;100.00
70250;BME280;57644;48.416;-123.374;2023-01-26T06:54:19;103945.24;;;0.59;100.00
70250;BME280;57644;48.416;-123.374;2023-01-26T06:56:49;103938.33;;;0.67;100.00
70250;BME280;57644;48.416;-123.374;2023-01-26T06:59:19;103937.61;;;0.69;100.00
70250;BME280;57644;48.416;-123.374;2023-01-26T07:01:49;103939.75;;;0.77;100.00
70250;BME280;57644;48.416;-123.374;2023-01-26T07:04:20;103942.91;;;0.84;100.00
70250;BME280;57644;48.416;-123.374;2023-01-26T07:06:51;103949.92;;;0.85;100.00
70250;BME280;57644;48.416;-123.374;2023-01-26T07:09:35;103956.15;;;0.81;100.00
70250;BME280;57644;48.416;-123.374;2023-01-26T07:11:51;103952.46;;;0.77;100.00
70250;BME280;57644;48.416;-123.374;2023-01-26T07:14:22;103949.84;;;0.76;100.00
70250;BME280;57644;48.416;-123.374;2023-01-26T07:16:52;103944.61;;;0.62;100.00
70250;BME280;57644;48.416;-123.374;2023-01-26T07:19:23;103944.26;;;0.67;100.00
70250;BME280;57644;48.416;-123.374;2023-01-26T07:21:53;103940.48;;;0.61;100.00
70250;BME280;57644;48.416;-123.374;2023-01-26T07:24:24;103937.96;;;0.46;100.00
70250;BME280;57644;48.416;-123.374;2023-01-26T07:26:56;103932.33;;;0.39;100.00
70250;BME280;57644;48.416;-123.374;2023-01-26T07:29:24;103932.29;;;0.36;100.00
70250;BME280;57644;48.416;-123.374;2023-01-26T07:31:55;103930.09;;;0.44;100.00
70250;BME280;57644;48.416;-123.374;2023-01-26T07:34:25;103926.95;;;0.55;100.00
70250;BME280;57644;48.416;-123.374;2023-01-26T07:36:56;103927.10;;;0.46;100.00
70250;BME280;57644;48.416;-123.374;2023-01-26T07:41:57;103918.50;;;0.50;100.00
70250;BME280;57644;48.416;-123.374;2023-01-26T07:46:58;103923.93;;;0.45;100.00
70250;BME280;57644;48.416;-123.374;2023-01-26T07:49:28;103925.61;;;0.52;100.00
70250;BME280;57644;48.416;-123.374;2023-01-26T07:52:00;103924.68;;;0.41;100.00
70250;BME280;57644;48.416;-123.374;2023-01-26T07:54:29;103922.12;;;0.51;100.00
70250;BME280;57644;48.416;-123.374;2023-01-26T07:59:30;103921.95;;;0.32;100.00
70250;BME280;57644;48.416;-123.374;2023-01-26T08:02:01;103919.89;;;0.37;100.00
70250;BME280;57644;48.416;-123.374;2023-01-26T08:04:31;103918.86;;;0.43;100.00
70250;BME280;57644;48.416;-123.374;2023-01-26T08:07:02;103917.42;;;0.46;100.00
70250;BME280;57644;48.416;-123.374;2023-01-26T08:09:32;103917.37;;;0.55;100.00
70250;BME280;57644;48.416;-123.374;2023-01-26T08:12:03;103914.81;;;0.58;100.00
70250;BME280;57644;48.416;-123.374;2023-01-26T08:14:38;103911.59;;;0.55;100.00
70250;BME280;57644;48.416;-123.374;2023-01-26T08:17:07;103911.57;;;0.58;100.00
70250;BME280;57644;48.416;-123.374;2023-01-26T08:19:34;103913.17;;;0.61;100.00
70250;BME280;57644;48.416;-123.374;2023-01-26T08:22:05;103917.62;;;0.58;100.00
70250;BME280;57644;48.416;-123.374;2023-01-26T08:24:35;103914.50;;;0.60;100.00
70250;BME280;57644;48.416;-123.374;2023-01-26T08:27:05;103913.25;;;0.60;100.00
70250;BME280;57644;48.416;-123.374;2023-01-26T08:29:36;103916.31;;;0.66;100.00
70250;BME280;57644;48.416;-123.374;2023-01-26T08:32:07;103916.08;;;0.62;100.00
70250;BME280;57644;48.416;-123.374;2023-01-26T08:34:37;103918.37;;;0.52;100.00
70250;BME280;57644;48.416;-123.374;2023-01-26T08:37:07;103914.05;;;0.51;100.00
70250;BME280;57644;48.416;-123.374;2023-01-26T08:39:38;103909.98;;;0.49;100.00
70250;BME280;57644;48.416;-123.374;2023-01-26T08:42:08;103909.14;;;0.53;100.00
70250;BME280;57644;48.416;-123.374;2023-01-26T08:44:39;103913.51;;;0.53;100.00
70250;BME280;57644;48.416;-123.374;2023-01-26T08:47:10;103917.67;;;0.52;100.00
70250;BME280;57644;48.416;-123.374;2023-01-26T08:49:40;103918.14;;;0.58;100.00
70250;BME280;57644;48.416;-123.374;2023-01-26T08:52:10;103920.52;;;0.52;100.00
70250;BME280;57644;48.416;-123.374;2023-01-26T08:54:41;103919.24;;;0.47;100.00
70250;BME280;57644;48.416;-123.374;2023-01-26T08:57:11;103916.83;;;0.36;100.00
70250;BME280;57644;48.416;-123.374;2023-01-26T08:59:42;103918.45;;;0.37;100.00
70250;BME280;57644;48.416;-123.374;2023-01-26T09:02:12;103921.92;;;0.34;100.00
70250;BME280;57644;48.416;-123.374;2023-01-26T09:04:43;103917.88;;;0.36;100.00
70250;BME280;57644;48.416;-123.374;2023-01-26T09:07:14;103913.73;;;0.35;100.00
70250;BME280;57644;48.416;-123.374;2023-01-26T09:09:44;103912.12;;;0.32;100.00
70250;BME280;57644;48.416;-123.374;2023-01-26T09:17:15;103912.18;;;0.32;100.00
70250;BME280;57644;48.416;-123.374;2023-01-26T09:19:45;103907.02;;;0.38;100.00
70250;BME280;57644;48.416;-123.374;2023-01-26T09:22:16;103915.43;;;0.44;100.00
70250;BME280;57644;48.416;-123.374;2023-01-26T09:24:47;103917.02;;;0.47;100.00
70250;BME280;57644;48.416;-123.374;2023-01-26T09:27:17;103910.82;;;0.51;100.00
70250;BME280;57644;48.416;-123.374;2023-01-26T09:29:51;103904.25;;;0.43;100.00
70250;BME280;57644;48.416;-123.374;2023-01-26T09:32:18;103904.09;;;0.47;100.00
70250;BME280;57644;48.416;-123.374;2023-01-26T09:34:49;103899.74;;;0.44;100.00
70250;BME280;57644;48.416;-123.374;2023-01-26T09:37:19;103897.92;;;0.35;100.00
70250;BME280;57644;48.416;-123.374;2023-01-26T09:39:50;103902.31;;;0.36;100.00
70250;BME280;57644;48.416;-123.374;2023-01-26T09:42:34;103901.00;;;0.36;100.00
70250;BME280;57644;48.416;-123.374;2023-01-26T09:44:58;103897.35;;;0.29;100.00
70250;BME280;57644;48.416;-123.374;2023-01-26T09:47:26;103895.03;;;0.34;100.00
70250;BME280;57644;48.416;-123.374;2023-01-26T09:49:55;103889.70;;;0.22;100.00
70250;BME280;57644;48.416;-123.374;2023-01-26T09:54:56;103894.69;;;0.20;100.00
70250;BME280;57644;48.416;-123.374;2023-01-26T09:57:29;103898.67;;;0.29;100.00
70250;BME280;57644;48.416;-123.374;2023-01-26T09:59:57;103895.79;;;0.39;100.00
70250;BME280;57644;48.416;-123.374;2023-01-26T10:02:34;103901.70;;;0.38;100.00
70250;BME280;57644;48.416;-123.374;2023-01-26T10:04:59;103895.91;;;0.30;100.00
70250;BME280;57644;48.416;-123.374;2023-01-26T10:07:26;103897.38;;;0.37;100.00
70250;BME280;57644;48.416;-123.374;2023-01-26T10:09:56;103898.85;;;0.45;100.00
70250;BME280;57644;48.416;-123.374;2023-01-26T10:15:01;103896.73;;;0.38;100.00
70250;BME280;57644;48.416;-123.374;2023-01-26T10:17:32;103899.01;;;0.47;100.00
70250;BME280;57644;48.416;-123.374;2023-01-26T10:20:03;103892.47;;;0.54;100.00
70250;BME280;57644;48.416;-123.374;2023-01-26T10:22:35;103883.91;;;0.48;100.00
70250;BME280;57644;48.416;-123.374;2023-01-26T10:24:59;103877.80;;;0.21;100.00
70250;BME280;57644;48.416;-123.374;2023-01-26T10:27:29;103876.90;;;0.20;100.00
70250;BME280;57644;48.416;-123.374;2023-01-26T10:30:00;103874.71;;;0.28;100.00
70250;BME280;57644;48.416;-123.374;2023-01-26T10:32:31;103873.16;;;0.22;100.00
70250;BME280;57644;48.416;-123.374;2023-01-26T10:35:01;103874.10;;;0.20;100.00
70250;BME280;57644;48.416;-123.374;2023-01-26T10:37:33;103875.32;;;0.01;100.00
70250;BME280;57644;48.416;-123.374;2023-01-26T10:40:03;103870.90;;;0.11;100.00
70250;BME280;57644;48.416;-123.374;2023-01-26T10:42:34;103862.88;;;-0.05;100.00
70250;BME280;57644;48.416;-123.374;2023-01-26T10:45:07;103865.40;;;0.11;100.00
70250;BME280;57644;48.416;-123.374;2023-01-26T10:47:33;103865.07;;;0.25;100.00
70250;BME280;57644;48.416;-123.374;2023-01-26T10:52:35;103850.66;;;0.32;100.00
70250;BME280;57644;48.416;-123.374;2023-01-26T10:55:11;103841.53;;;0.10;100.00
70250;BME280;57644;48.416;-123.374;2023-01-26T10:57:38;103837.70;;;0.15;100.00
70250;BME280;57644;48.416;-123.374;2023-01-26T11:00:18;103836.63;;;0.09;100.00
70250;BME280;57644;48.416;-123.374;2023-01-26T11:02:36;103834.85;;;0.16;100.00
70250;BME280;57644;48.416;-123.374;2023-01-26T11:05:14;103836.90;;;0.26;100.00
70250;BME280;57644;48.416;-123.374;2023-01-26T11:07:39;103836.72;;;0.29;100.00
70250;BME280;57644;48.416;-123.374;2023-01-26T11:12:38;103842.37;;;0.49;100.00
70250;BME280;57644;48.416;-123.374;2023-01-26T11:15:16;103848.28;;;0.56;100.00
70250;BME280;57644;48.416;-123.374;2023-01-26T11:17:42;103850.86;;;0.48;100.00
70250;BME280;57644;48.416;-123.374;2023-01-26T11:22:47;103847.46;;;0.31;100.00
70250;BME280;57644;48.416;-123.374;2023-01-26T11:25:17;103839.93;;;0.31;100.00
70250;BME280;57644;48.416;-123.374;2023-01-26T11:27:49;103833.56;;;0.38;100.00
70250;BME280;57644;48.416;-123.374;2023-01-26T11:32:49;103831.35;;;0.17;100.00
70250;BME280;57644;48.416;-123.374;2023-01-26T11:35:21;103828.69;;;0.31;100.00
70250;BME280;57644;48.416;-123.374;2023-01-26T11:40:20;103818.13;;;-0.41;100.00
70250;BME280;57644;48.416;-123.374;2023-01-26T11:42:48;103823.77;;;-0.48;100.00
70250;BME280;57644;48.416;-123.374;2023-01-26T11:45:20;103831.88;;;-0.34;100.00
70250;BME280;57644;48.416;-123.374;2023-01-26T11:47:53;103839.35;;;-0.25;100.00
70250;BME280;57644;48.416;-123.374;2023-01-26T11:50:28;103843.84;;;-0.14;100.00
70250;BME280;57644;48.416;-123.374;2023-01-26T11:52:57;103843.98;;;-0.03;100.00
70250;BME280;57644;48.416;-123.374;2023-01-26T11:57:59;103836.24;;;0.25;100.00
70250;BME280;57644;48.416;-123.374;2023-01-26T12:00:21;103832.91;;;0.15;100.00
70250;BME280;57644;48.416;-123.374;2023-01-26T12:02:52;103833.44;;;0.16;100.00
70250;BME280;57644;48.416;-123.374;2023-01-26T12:05:22;103825.12;;;0.00;100.00
70250;BME280;57644;48.416;-123.374;2023-01-26T12:07:53;103821.41;;;0.03;100.00
70250;BME280;57644;48.416;-123.374;2023-01-26T12:10:24;103823.15;;;-0.15;100.00
70250;BME280;57644;48.416;-123.374;2023-01-26T12:12:54;103828.17;;;0.07;100.00
70250;BME280;57644;48.416;-123.374;2023-01-26T12:15:24;103827.84;;;0.16;100.00
70250;BME280;57644;48.416;-123.374;2023-01-26T12:17:57;103814.67;;;-0.15;100.00
70250;BME280;57644;48.416;-123.374;2023-01-26T12:20:28;103814.21;;;-0.17;100.00
70250;BME280;57644;48.416;-123.374;2023-01-26T12:22:59;103815.57;;;-0.05;100.00
70250;BME280;57644;48.416;-123.374;2023-01-26T12:25:30;103818.41;;;-0.14;100.00
70250;BME280;57644;48.416;-123.374;2023-01-26T12:28:00;103823.96;;;-0.13;100.00
70250;BME280;57644;48.416;-123.374;2023-01-26T12:30:31;103828.53;;;-0.14;100.00
70250;BME280;57644;48.416;-123.374;2023-01-26T12:32:54;103832.04;;;-0.09;100.00
70250;BME280;57644;48.416;-123.374;2023-01-26T12:35:37;103835.71;;;-0.03;100.00
70250;BME280;57644;48.416;-123.374;2023-01-26T12:37:59;103834.23;;;-0.00;100.00
70250;BME280;57644;48.416;-123.374;2023-01-26T12:40:32;103833.55;;;-0.12;100.00
70250;BME280;57644;48.416;-123.374;2023-01-26T12:43:04;103828.52;;;-0.04;100.00
70250;BME280;57644;48.416;-123.374;2023-01-26T12:45:29;103825.61;;;-0.29;100.00
70250;BME280;57644;48.416;-123.374;2023-01-26T12:48:04;103823.22;;;-0.36;100.00
70250;BME280;57644;48.416;-123.374;2023-01-26T12:50:30;103820.21;;;-0.31;100.00
70250;BME280;57644;48.416;-123.374;2023-01-26T12:53:03;103827.71;;;-0.22;100.00
70250;BME280;57644;48.416;-123.374;2023-01-26T12:55:31;103826.75;;;-0.44;100.00
70250;BME280;57644;48.416;-123.374;2023-01-26T12:58:01;103824.92;;;-0.34;100.00
70250;BME280;57644;48.416;-123.374;2023-01-26T13:00:31;103823.45;;;-0.48;100.00
70250;BME280;57644;48.416;-123.374;2023-01-26T13:03:03;103826.83;;;-0.42;100.00
70250;BME280;57644;48.416;-123.374;2023-01-26T13:05:32;103827.12;;;-0.57;100.00
70250;BME280;57644;48.416;-123.374;2023-01-26T13:15:32;103836.64;;;-0.16;100.00
70250;BME280;57644;48.416;-123.374;2023-01-26T13:18:03;103843.84;;;-0.01;100.00